Time;durP1;ratioP1;P1;durP2;ratioP2;P2;SDS_P1;SDS_P2;PMS_P1;PMS_P2;Temp;Humidity;BMP_temperature;BMP_pressure;BME280_temperature;BME280_humidity;BME280_pressure;Samples;Min_cycle;Max_cycle;Signal;HPM_P1;HPM_P2
2021/03/26 00:01:11;;;;;;;9.20;3.67;;;;;;;5.32;62.21;99147.97;5034641;28;20025;-65
2021/03/26 00:03:40;;;;;;;6.90;3.97;;;;;;;5.39;61.97;99144.66;5032455;28;20325;-65
2021/03/26 00:06:30;;;;;;;9.17;3.90;;;;;;;5.60;61.35;99140.63;5033953;28;20048;-64
2021/03/26 00:08:56;;;;;;;6.20;4.07;;;;;;;5.70;61.06;99142.38;5034257;28;20044;-64
2021/03/26 00:11:25;;;;;;;7.33;3.97;;;;;;;5.83;60.72;99142.50;5032883;28;20091;-64
2021/03/26 00:13:51;;;;;;;10.27;3.70;;;;;;;5.95;59.82;99147.72;5036402;28;20083;-64
2021/03/26 00:16:18;;;;;;;4.83;3.20;;;;;;;5.92;59.96;99149.41;5029132;28;20137;-64
2021/03/26 00:18:43;;;;;;;7.40;4.17;;;;;;;5.87;60.13;99156.13;5034027;28;20029;-64
2021/03/26 00:21:09;;;;;;;7.30;3.93;;;;;;;5.67;61.12;99152.53;5030332;28;20077;-64
2021/03/26 00:23:35;;;;;;;5.80;3.97;;;;;;;5.73;61.11;99150.06;5035347;28;20025;-64
2021/03/26 00:26:00;;;;;;;6.50;4.10;;;;;;;5.43;62.22;99140.47;5032751;28;20029;-63
2021/03/26 00:28:26;;;;;;;5.27;3.80;;;;;;;5.22;62.78;99141.09;5033284;28;20078;-65
2021/03/26 00:30:51;;;;;;;9.30;4.63;;;;;;;5.44;62.22;99150.63;5030982;28;20130;-63
2021/03/26 00:33:17;;;;;;;5.93;4.17;;;;;;;5.52;62.06;99151.56;5033712;28;20041;-65
2021/03/26 00:35:42;;;;;;;5.37;3.77;;;;;;;5.65;61.42;99149.97;5029814;28;20037;-65
2021/03/26 00:38:08;;;;;;;5.80;3.90;;;;;;;5.75;61.00;99150.91;5034417;28;20029;-64
2021/03/26 00:40:33;;;;;;;6.90;4.50;;;;;;;5.75;60.87;99146.69;5032788;28;20041;-64
2021/03/26 00:42:59;;;;;;;6.30;3.50;;;;;;;5.83;61.02;99150.16;5033318;28;20045;-64
2021/03/26 00:45:31;;;;;;;7.83;4.57;;;;;;;5.74;60.74;99136.50;5033919;28;20067;-64
2021/03/26 00:47:57;;;;;;;4.07;3.30;;;;;;;5.58;61.03;99134.66;5033004;28;20042;-66
2021/03/26 00:50:36;;;;;;;5.50;3.83;;;;;;;5.72;61.27;99143.28;5031944;28;20068;-63
2021/03/26 00:53:05;;;;;;;8.17;4.90;;;;;;;5.69;61.30;99146.63;5030529;28;20029;-65
2021/03/26 00:55:30;;;;;;;6.20;3.93;;;;;;;5.73;61.13;99135.63;5034792;28;20084;-65
2021/03/26 00:57:56;;;;;;;6.77;4.10;;;;;;;5.73;60.94;99130.53;5029092;28;20345;-65
2021/03/26 01:00:24;;;;;;;8.47;4.23;;;;;;;5.76;60.95;99122.09;5036354;28;20033;-65
2021/03/26 01:02:50;;;;;;;6.93;4.77;;;;;;;5.77;60.70;99139.09;5031991;28;20037;-65
2021/03/26 01:05:21;;;;;;;9.40;4.63;;;;;;;5.75;60.95;99135.66;5032601;28;20037;-65
2021/03/26 01:07:47;;;;;;;7.67;4.10;;;;;;;5.65;60.81;99138.94;5045017;28;20338;-65
2021/03/26 01:10:16;;;;;;;7.13;4.50;;;;;;;5.56;61.35;99139.72;5032891;28;20045;-64
2021/03/26 01:12:41;;;;;;;6.60;4.30;;;;;;;5.33;62.13;99138.66;5027348;28;20037;-64
2021/03/26 01:15:09;;;;;;;5.83;3.70;;;;;;;5.16;62.84;99138.50;5033728;28;20398;-63
2021/03/26 01:17:35;;;;;;;4.70;3.27;;;;;;;4.98;63.81;99141.69;5033684;28;20313;-63
2021/03/26 01:20:00;;;;;;;7.40;4.47;;;;;;;4.81;63.75;99122.00;5031688;28;20045;-64
2021/03/26 01:22:26;;;;;;;6.00;4.10;;;;;;;4.83;63.99;99136.44;5034024;28;20033;-63
2021/03/26 01:24:51;;;;;;;7.40;4.23;;;;;;;4.68;64.36;99145.53;5027137;28;20053;-65
2021/03/26 01:27:17;;;;;;;6.63;4.20;;;;;;;4.56;65.04;99147.09;5034258;28;20037;-63
2021/03/26 01:29:42;;;;;;;11.10;5.13;;;;;;;4.47;65.23;99146.13;5031675;28;20156;-65
2021/03/26 01:32:09;;;;;;;6.30;4.07;;;;;;;4.70;64.58;99146.44;5032605;28;20160;-64
2021/03/26 01:34:35;;;;;;;8.17;4.27;;;;;;;4.66;64.94;99140.47;5031843;28;20112;-65
2021/03/26 01:37:00;;;;;;;7.10;4.40;;;;;;;4.72;64.86;99149.81;5032160;28;20196;-63
2021/03/26 01:39:25;;;;;;;9.07;4.70;;;;;;;4.63;65.21;99149.69;5029514;28;20017;-65
2021/03/26 01:41:51;;;;;;;7.87;4.67;;;;;;;4.62;65.08;99148.88;5030936;28;20044;-63
2021/03/26 01:44:21;;;;;;;6.80;4.80;;;;;;;4.69;65.26;99147.25;5030514;28;20136;-63
2021/03/26 01:46:48;;;;;;;6.00;4.47;;;;;;;4.66;65.74;99148.06;5034341;28;20030;-66
2021/03/26 01:49:14;;;;;;;8.00;4.57;;;;;;;4.65;65.50;99148.91;5031402;28;20029;-65
2021/03/26 01:51:43;;;;;;;10.57;4.37;;;;;;;4.69;65.11;99149.78;5034147;28;20041;-65
2021/03/26 01:54:12;;;;;;;6.97;3.97;;;;;;;4.71;65.57;99148.97;5027623;28;20493;-65
2021/03/26 01:56:38;;;;;;;8.27;4.40;;;;;;;4.62;65.44;99142.94;5035883;28;20037;-65
2021/03/26 01:59:03;;;;;;;11.90;5.07;;;;;;;4.57;66.23;99143.72;5029290;28;20044;-64
2021/03/26 02:01:37;;;;;;;7.10;4.23;;;;;;;4.58;65.82;99145.41;5032959;28;20279;-65
2021/03/26 02:04:06;;;;;;;9.23;4.03;;;;;;;4.52;66.19;99149.56;5045685;28;20029;-65
2021/03/26 02:06:36;;;;;;;8.27;4.30;;;;;;;4.49;66.23;99145.31;5036286;28;20030;-64
2021/03/26 02:09:09;;;;;;;10.73;4.53;;;;;;;4.56;66.60;99143.69;5030189;28;20446;-65
2021/03/26 02:11:41;;;;;;;9.90;4.67;;;;;;;4.59;66.07;99141.19;5030458;28;20017;-65
2021/03/26 02:14:13;;;;;;;6.30;3.77;;;;;;;4.69;65.63;99143.03;5036188;28;20037;-64
2021/03/26 02:16:39;;;;;;;6.03;3.90;;;;;;;4.74;65.37;99136.31;5035874;28;20034;-65
2021/03/26 02:19:28;;;;;;;7.93;3.70;;;;;;;4.81;66.02;99137.22;5037240;28;20039;-65
2021/03/26 02:21:53;;;;;;;7.03;3.90;;;;;;;4.96;64.98;99139.97;5034482;28;20049;-64
2021/03/26 02:24:19;;;;;;;7.37;4.17;;;;;;;5.04;64.65;99144.31;5038605;28;20088;-65
2021/03/26 02:26:51;;;;;;;8.50;4.73;;;;;;;5.13;64.34;99143.56;5033534;28;20129;-64
2021/03/26 02:29:27;;;;;;;5.63;3.67;;;;;;;5.14;64.40;99140.16;5036411;28;20041;-65
2021/03/26 02:32:28;;;;;;;6.83;4.27;;;;;;;5.21;64.04;99138.53;5032078;28;20033;-65
2021/03/26 02:35:16;;;;;;;7.90;4.13;;;;;;;5.20;64.12;99145.31;5036373;28;20398;-65
2021/03/26 02:37:56;;;;;;;6.40;4.17;;;;;;;5.42;63.82;99152.34;5033022;28;20039;-65
2021/03/26 02:40:31;;;;;;;8.10;4.00;;;;;;;5.74;62.46;99142.44;5033605;28;20029;-64
2021/03/26 02:43:06;;;;;;;7.90;4.47;;;;;;;6.01;61.95;99146.94;5037234;28;20025;-65
2021/03/26 02:45:39;;;;;;;6.27;3.67;;;;;;;6.06;61.68;99152.06;5034634;28;20042;-65
2021/03/26 02:48:16;;;;;;;8.00;4.30;;;;;;;5.97;61.80;99135.03;5037416;28;20037;-65
2021/03/26 02:51:17;;;;;;;9.43;3.87;;;;;;;6.14;61.39;99150.41;5037825;28;20076;-65
2021/03/26 02:54:14;;;;;;;6.93;4.10;;;;;;;6.12;61.49;99150.38;4996782;28;20281;-65
2021/03/26 02:56:52;;;;;;;6.90;4.03;;;;;;;6.05;61.77;99143.56;4991690;28;20069;-65
2021/03/26 02:59:22;;;;;;;9.57;4.13;;;;;;;6.18;61.34;99150.44;4991641;28;20045;-65
2021/03/26 03:01:51;;;;;;;9.77;3.90;;;;;;;6.25;61.06;99152.19;4996461;28;20038;-66
2021/03/26 03:04:39;;;;;;;5.70;3.40;;;;;;;6.18;61.21;99153.00;4993430;28;20134;-65
2021/03/26 03:07:28;;;;;;;6.90;3.63;;;;;;;6.22;61.24;99156.41;4995135;28;20050;-65
2021/03/26 03:09:58;;;;;;;7.10;4.13;;;;;;;6.22;61.01;99164.91;4996715;28;20046;-64
2021/03/26 03:12:33;;;;;;;10.60;4.10;;;;;;;6.18;61.14;99162.31;4978108;28;20368;-66
2021/03/26 03:15:07;;;;;;;;;;;;;;;6.17;61.16;99169.09;4999702;28;20387;-65
2021/03/26 03:17:44;;;;;;;8.80;3.77;;;;;;;6.17;61.18;99166.56;4991175;28;19914;-65
2021/03/26 03:20:19;;;;;;;8.87;5.00;;;;;;;6.21;61.17;99165.72;4997989;28;20093;-65
2021/03/26 03:23:10;;;;;;;6.95;4.43;;;;;;;6.21;61.43;99168.28;4977438;28;20074;-65
2021/03/26 03:25:35;;;;;;;9.20;4.50;;;;;;;6.15;61.14;99163.16;4993893;28;20190;-64
2021/03/26 03:28:14;;;;;;;8.23;3.80;;;;;;;6.12;61.51;99170.75;4997182;28;20026;-65
2021/03/26 03:31:15;;;;;;;8.53;4.50;;;;;;;6.21;61.15;99173.38;5031960;28;20398;-62
2021/03/26 03:33:51;;;;;;;7.10;4.00;;;;;;;6.09;61.50;99168.19;5033671;28;20037;-64
2021/03/26 03:36:23;;;;;;;6.90;4.30;;;;;;;6.03;61.53;99147.78;5033994;28;20033;-65
2021/03/26 03:39:11;;;;;;;7.13;3.60;;;;;;;6.10;61.48;99172.44;5043814;28;20033;-65
2021/03/26 03:41:45;;;;;;;6.37;3.60;;;;;;;5.97;61.94;99175.75;5041567;28;20033;-63
2021/03/26 03:44:22;;;;;;;6.17;4.20;;;;;;;5.78;62.38;99171.28;5037551;28;20057;-65
2021/03/26 03:47:20;;;;;;;7.17;4.53;;;;;;;5.76;62.34;99178.06;5034925;28;20049;-63
2021/03/26 03:49:50;;;;;;;7.57;4.30;;;;;;;5.70;62.62;99172.91;5029706;28;20026;-64
2021/03/26 03:52:28;;;;;;;6.67;4.37;;;;;;;5.60;63.07;99177.06;5035161;28;20037;-64
2021/03/26 03:55:16;;;;;;;8.30;4.53;;;;;;;5.67;62.97;99177.97;5036908;28;20474;-64
2021/03/26 03:57:59;;;;;;;11.97;4.80;;;;;;;5.72;62.87;99174.66;5034834;28;20059;-64
2021/03/26 04:00:31;;;;;;;9.53;5.10;;;;;;;5.79;62.84;99173.00;5035889;28;20107;-65
2021/03/26 04:03:41;;;;;;;9.83;4.30;;;;;;;5.83;62.84;99172.19;5035633;28;20022;-64
2021/03/26 04:06:20;;;;;;;8.70;4.30;;;;;;;6.12;61.65;99173.28;5039947;28;20188;-65
2021/03/26 04:08:53;;;;;;;8.77;4.50;;;;;;;6.44;60.72;99176.06;5040352;28;20041;-64
2021/03/26 04:11:31;;;;;;;7.67;3.93;;;;;;;6.32;61.09;99181.91;5037035;28;20029;-64
2021/03/26 04:14:05;;;;;;;8.67;4.77;;;;;;;6.08;61.58;99181.75;5040074;28;20072;-64
2021/03/26 04:16:31;;;;;;;9.27;4.37;;;;;;;5.81;62.33;99187.44;5036513;28;20037;-64
2021/03/26 04:19:25;;;;;;;11.50;5.03;;;;;;;5.74;62.87;99184.81;5036456;28;20025;-63
2021/03/26 04:21:57;;;;;;;9.13;4.97;;;;;;;5.72;62.80;99186.50;5025898;28;22298;-63
2021/03/26 04:24:31;;;;;;;7.63;4.53;;;;;;;5.71;62.98;99180.56;5034596;28;20065;-65
2021/03/26 04:27:05;;;;;;;10.30;5.17;;;;;;;5.72;63.32;99178.88;5018530;28;20063;-65
2021/03/26 04:30:00;;;;;;;9.73;5.90;;;;;;;5.62;63.35;99188.09;5030984;28;20089;-64
2021/03/26 04:32:26;;;;;;;12.83;5.33;;;;;;;5.54;63.76;99194.81;4962654;28;20046;-63
2021/03/26 04:34:54;;;;;;;11.90;5.30;;;;;;;5.39;63.81;99192.09;4970809;28;20641;-64
2021/03/26 04:37:41;;;;;;;9.33;5.90;;;;;;;5.20;64.62;99187.66;4970308;28;20038;-64
2021/03/26 04:40:15;;;;;;;12.33;5.43;;;;;;;5.14;64.96;99211.31;4971578;28;20049;-65
2021/03/26 04:42:58;;;;;;;8.63;5.13;;;;;;;5.00;65.44;99210.31;4983310;28;20030;-69
2021/03/26 04:45:32;;;;;;;7.57;4.90;;;;;;;4.87;65.86;99221.16;4982064;28;20466;-69
2021/03/26 04:48:19;;;;;;;7.90;4.60;;;;;;;4.74;66.17;99219.28;4988365;28;20186;-69
2021/03/26 04:51:05;;;;;;;9.17;4.70;;;;;;;4.60;67.00;99225.00;4986575;28;20042;-69
2021/03/26 04:53:41;;;;;;;7.72;4.40;;;;;;;4.51;66.89;99222.34;4990956;28;20034;-69
2021/03/26 04:56:12;;;;;;;7.37;4.60;;;;;;;4.41;67.46;99222.19;4988497;28;20045;-70
2021/03/26 04:58:40;;;;;;;9.17;4.77;;;;;;;4.30;67.52;99221.16;4987871;28;20034;-68
2021/03/26 05:01:13;;;;;;;12.17;6.03;;;;;;;4.17;68.30;99212.50;4987827;28;20030;-68
2021/03/26 05:03:43;;;;;;;9.97;5.10;;;;;;;4.14;68.29;99220.94;4982214;28;20038;-66
2021/03/26 05:06:18;;;;;;;8.67;4.83;;;;;;;4.08;68.56;99220.81;4983024;28;20045;-67
2021/03/26 05:09:33;;;;;;;7.45;4.47;;;;;;;4.04;68.67;99219.06;4982940;28;20037;-69
2021/03/26 05:12:04;;;;;;;9.07;5.23;;;;;;;3.96;69.12;99222.31;5020054;28;20087;-67
2021/03/26 05:14:40;;;;;;;9.20;5.83;;;;;;;3.95;69.56;99226.53;5028330;28;20101;-68
2021/03/26 05:17:28;;;;;;;9.80;5.43;;;;;;;3.99;69.54;99232.50;5031262;28;20080;-68
2021/03/26 05:20:05;;;;;;;9.03;6.13;;;;;;;4.10;69.41;99224.25;5032885;28;20029;-67
2021/03/26 05:22:45;;;;;;;12.67;6.33;;;;;;;4.22;69.35;99226.13;5031563;28;20064;-67
2021/03/26 05:25:23;;;;;;;12.43;6.60;;;;;;;4.36;68.76;99239.03;5033965;28;20025;-66
2021/03/26 05:27:49;;;;;;;9.17;5.27;;;;;;;4.40;68.68;99234.03;5030383;28;20387;-67
2021/03/26 05:30:22;;;;;;;12.50;6.40;;;;;;;4.51;68.51;99236.72;5033765;28;20036;-66
2021/03/26 05:32:56;;;;;;;11.13;5.53;;;;;;;4.56;68.71;99230.03;5028534;28;20069;-70
2021/03/26 05:35:26;;;;;;;13.53;6.40;;;;;;;4.65;68.18;99227.63;5032147;28;20116;-68
2021/03/26 05:38:13;;;;;;;11.87;6.10;;;;;;;4.72;67.81;99231.09;5034050;28;20302;-70
2021/03/26 05:40:52;;;;;;;12.17;5.63;;;;;;;4.81;68.08;99231.22;5031988;28;20026;-68
2021/03/26 05:43:42;;;;;;;8.70;5.80;;;;;;;4.85;67.82;99231.28;5032917;28;20171;-67
2021/03/26 05:46:39;;;;;;;9.47;5.53;;;;;;;4.92;67.31;99239.84;5028831;28;20033;-63
2021/03/26 05:49:10;;;;;;;10.97;5.90;;;;;;;4.99;67.57;99247.56;5026847;28;20394;-67
2021/03/26 05:51:36;;;;;;;13.90;6.07;;;;;;;4.99;67.60;99242.47;5028312;28;20072;-66
2021/03/26 05:54:19;;;;;;;12.27;5.67;;;;;;;5.11;67.55;99251.09;5032268;28;20030;-61
2021/03/26 05:57:21;;;;;;;9.07;5.60;;;;;;;5.22;67.24;99250.38;5032393;28;20017;-65
2021/03/26 06:00:05;;;;;;;7.03;4.70;;;;;;;5.32;67.01;99251.34;5028301;28;20061;-62
2021/03/26 06:02:56;;;;;;;11.93;6.50;;;;;;;5.38;66.80;99257.38;5030682;28;20021;-64
2021/03/26 06:05:44;;;;;;;10.33;6.70;;;;;;;5.48;66.62;99249.00;5029950;28;20036;-66
2021/03/26 06:08:27;;;;;;;7.50;4.83;;;;;;;5.51;66.33;99249.06;5030710;28;20123;-66
2021/03/26 06:11:33;;;;;;;10.50;5.53;;;;;;;5.66;66.04;99255.97;5030538;28;20072;-68
2021/03/26 06:14:18;;;;;;;11.43;5.53;;;;;;;5.69;65.88;99253.44;5030578;28;20243;-67
2021/03/26 06:17:13;;;;;;;8.87;6.17;;;;;;;5.84;65.50;99248.53;5033336;28;20104;-67
2021/03/26 06:20:07;;;;;;;13.52;6.57;;;;;;;6.06;64.87;99254.72;5026468;28;20041;-67
2021/03/26 06:23:18;;;;;;;9.40;6.30;;;;;;;6.22;64.66;99258.25;5033003;28;20025;-67
2021/03/26 06:26:21;;;;;;;8.40;5.47;;;;;;;6.42;64.47;99266.88;4995554;28;20044;-67
2021/03/26 06:28:57;;;;;;;8.80;5.57;;;;;;;6.63;63.83;99263.63;5011770;28;20077;-67
2021/03/26 06:31:41;;;;;;;;;;;;;;;6.82;63.64;99270.56;5014569;28;20065;-67
2021/03/26 06:34:55;;;;;;;8.23;5.23;;;;;;;6.98;63.14;99262.16;5011846;28;19996;-67
2021/03/26 06:37:35;;;;;;;7.90;5.37;;;;;;;7.25;62.94;99257.22;5012809;28;20061;-68
2021/03/26 06:40:48;;;;;;;11.57;6.33;;;;;;;7.37;61.66;99265.75;4997164;28;20030;-66
2021/03/26 06:43:50;;;;;;;8.90;5.33;;;;;;;7.57;61.13;99261.56;5007997;28;20034;-68
2021/03/26 06:46:31;;;;;;;14.70;6.73;;;;;;;7.72;61.25;99259.06;5012030;28;20053;-68
2021/03/26 06:49:27;;;;;;;8.43;5.70;;;;;;;7.97;60.32;99265.06;5009425;28;20101;-68
2021/03/26 06:52:18;;;;;;;12.50;7.17;;;;;;;8.15;59.61;99265.06;5014227;28;20034;-68
2021/03/26 06:55:18;;;;;;;12.93;7.20;;;;;;;8.24;58.75;99259.97;5015057;28;20261;-68
2021/03/26 06:58:17;;;;;;;9.30;6.63;;;;;;;8.45;58.69;99264.25;5017052;28;20026;-68
2021/03/26 07:01:31;;;;;;;10.83;6.53;;;;;;;8.70;58.33;99269.34;5017617;28;20069;-68
2021/03/26 07:04:31;;;;;;;14.13;7.43;;;;;;;8.91;58.17;99268.44;5009647;28;20052;-69
2021/03/26 07:07:24;;;;;;;14.17;7.27;;;;;;;9.01;57.67;99270.16;5034540;28;20119;-68
2021/03/26 07:10:16;;;;;;;16.13;8.17;;;;;;;9.24;57.22;99274.34;5031561;28;20112;-68
2021/03/26 07:13:19;;;;;;;19.77;9.40;;;;;;;9.48;55.79;99269.13;5035216;28;20036;-68
2021/03/26 07:16:06;;;;;;;16.63;10.23;;;;;;;9.62;55.43;99257.13;5029997;28;20025;-68
2021/03/26 07:18:57;;;;;;;20.67;10.03;;;;;;;9.86;54.17;99266.38;5037389;28;20069;-64
2021/03/26 07:21:51;;;;;;;19.73;10.83;;;;;;;10.04;54.11;99269.69;5035742;28;20379;-64
2021/03/26 07:24:50;;;;;;;19.80;10.97;;;;;;;10.19;53.59;99267.88;4965321;28;20043;-63
2021/03/26 07:27:23;;;;;;;17.97;10.43;;;;;;;10.40;52.93;99260.03;4978878;28;20082;-64
2021/03/26 07:30:26;;;;;;;15.57;9.43;;;;;;;10.62;52.56;99264.13;4977905;28;20041;-68
2021/03/26 07:33:12;;;;;;;19.40;10.87;;;;;;;10.72;52.46;99270.03;4976081;28;20430;-70
2021/03/26 07:35:53;;;;;;;20.33;11.80;;;;;;;10.82;51.51;99269.91;4976880;28;20133;-70
2021/03/26 07:38:37;;;;;;;17.47;10.60;;;;;;;10.99;51.73;99262.03;4963654;28;20299;-71
2021/03/26 07:41:30;;;;;;;21.65;11.02;;;;;;;10.86;51.38;99258.75;4976526;28;20130;-70
2021/03/26 07:44:05;;;;;;;23.73;11.63;;;;;;;10.87;51.39;99272.41;4977242;28;20316;-71
2021/03/26 07:47:07;;;;;;;25.60;10.98;;;;;;;11.30;52.08;99275.38;4975645;28;20070;-71
2021/03/26 07:49:47;;;;;;;20.85;10.45;;;;;;;11.38;51.66;99276.13;4977943;28;20149;-73
2021/03/26 07:52:15;;;;;;;18.30;11.10;;;;;;;11.55;50.80;99274.22;4975470;28;20034;-74
2021/03/26 07:55:02;;;;;;;18.20;10.63;;;;;;;11.72;50.46;99276.59;4976696;28;20103;-75
2021/03/26 07:57:31;;;;;;;18.85;10.32;;;;;;;11.76;50.56;99271.41;4976077;28;20109;-74
2021/03/26 07:59:56;;;;;;;19.92;10.55;;;;;;;11.89;50.06;99272.94;4977054;28;20037;-74
2021/03/26 08:02:52;;;;;;;22.13;10.35;;;;;;;12.11;49.19;99281.19;5029580;28;20038;-73
2021/03/26 08:05:18;;;;;;;18.13;11.02;;;;;;;12.11;49.23;99280.34;5033520;28;20037;-74
2021/03/26 08:07:54;;;;;;;15.68;9.77;;;;;;;12.20;49.31;99269.91;5040462;28;20044;-73
2021/03/26 08:10:40;;;;;;;16.75;9.80;;;;;;;12.42;48.62;99278.16;5034524;28;20119;-75
2021/03/26 08:13:34;;;;;;;17.85;10.00;;;;;;;12.36;48.35;99264.50;5033509;28;20026;-72
2021/03/26 08:16:41;;;;;;;15.45;9.80;;;;;;;12.68;47.96;99276.84;5031888;28;20037;-74
2021/03/26 08:19:28;;;;;;;16.77;8.73;;;;;;;12.79;47.50;99280.09;5013202;28;20487;-73
2021/03/26 08:22:27;;;;;;;15.65;10.40;;;;;;;12.93;47.28;99287.56;5015824;28;20021;-73
2021/03/26 08:25:19;;;;;;;12.15;7.40;;;;;;;13.01;46.65;99266.81;5001035;28;20302;-74
2021/03/26 08:28:21;;;;;;;12.75;7.85;;;;;;;13.19;45.62;99277.69;5011049;28;20073;-74
2021/03/26 08:31:22;;;;;;;13.98;8.02;;;;;;;13.30;45.55;99280.03;5012994;28;20049;-74
2021/03/26 08:33:47;;;;;;;13.55;7.07;;;;;;;13.32;44.59;99283.44;5013035;28;20145;-73
2021/03/26 08:36:21;;;;;;;12.55;6.85;;;;;;;13.43;43.53;99291.78;4997948;28;20384;-73
2021/03/26 08:39:23;;;;;;;13.70;6.80;;;;;;;13.53;43.70;99279.56;5015628;28;20033;-74
2021/03/26 08:41:58;;;;;;;13.75;6.78;;;;;;;13.59;43.12;99282.00;4998836;28;20033;-73
2021/03/26 08:44:26;;;;;;;10.80;6.33;;;;;;;13.73;42.97;99278.28;4997837;28;20614;-73
2021/03/26 08:46:53;;;;;;;11.77;7.18;;;;;;;13.73;43.00;99262.81;5014828;28;20301;-73
2021/03/26 08:49:35;;;;;;;13.88;7.13;;;;;;;13.79;43.23;99276.47;5018942;28;20041;-73
2021/03/26 08:52:30;;;;;;;11.40;7.22;;;;;;;13.83;42.54;99276.34;5001054;28;20392;-73
2021/03/26 08:55:32;;;;;;;9.02;6.20;;;;;;;13.73;42.81;99275.69;5000268;28;20591;-73
2021/03/26 08:58:44;;;;;;;17.15;7.78;;;;;;;13.92;43.23;99273.56;5030845;28;20033;-74
2021/03/26 09:01:44;;;;;;;11.18;6.90;;;;;;;14.23;43.94;99275.44;5034229;28;20068;-73
2021/03/26 09:04:21;;;;;;;20.10;8.85;;;;;;;14.47;43.20;99275.72;5035367;28;20049;-74
2021/03/26 09:06:59;;;;;;;9.75;6.18;;;;;;;14.74;42.31;99275.94;5031764;28;20060;-73
2021/03/26 09:09:42;;;;;;;16.50;7.00;;;;;;;14.86;42.27;99263.56;5035874;28;20034;-72
2021/03/26 09:12:39;;;;;;;14.35;8.52;;;;;;;14.83;42.30;99268.81;5029199;28;20425;-73
2021/03/26 09:15:16;;;;;;;16.35;9.52;;;;;;;15.12;40.88;99270.63;5034913;28;20028;-73
2021/03/26 09:17:49;;;;;;;19.90;11.40;;;;;;;15.14;40.70;99268.84;5050284;28;20037;-74
2021/03/26 09:20:42;;;;;;;23.52;12.27;;;;;;;15.29;39.87;99271.00;5032046;28;20065;-72
2021/03/26 09:23:16;;;;;;;25.75;11.20;;;;;;;15.30;40.51;99274.44;5030227;28;20053;-73
2021/03/26 09:25:52;;;;;;;25.05;13.40;;;;;;;15.51;40.85;99269.56;5028793;28;20076;-73
2021/03/26 09:28:32;;;;;;;24.17;11.75;;;;;;;15.56;40.56;99271.16;5030683;28;20044;-74
2021/03/26 09:31:07;;;;;;;22.30;12.45;;;;;;;15.57;39.82;99271.13;5031911;28;20049;-73
2021/03/26 09:33:35;;;;;;;25.30;12.50;;;;;;;15.52;38.72;99268.66;5031724;28;20022;-72
2021/03/26 09:36:06;;;;;;;21.95;12.07;;;;;;;15.53;40.14;99270.34;5024833;28;20362;-73
2021/03/26 09:38:41;;;;;;;26.13;14.00;;;;;;;15.89;39.42;99263.25;5029787;28;20425;-71
2021/03/26 09:41:24;;;;;;;22.42;14.48;;;;;;;15.95;39.13;99267.41;5049123;28;20295;-69
2021/03/26 09:44:37;;;;;;;26.98;15.10;;;;;;;15.89;39.37;99265.84;5031387;28;20037;-67
2021/03/26 09:47:19;;;;;;;27.75;14.10;;;;;;;15.82;39.33;99268.66;5025215;28;20264;-68
2021/03/26 09:50:00;;;;;;;24.20;13.32;;;;;;;16.04;40.09;99274.84;5028545;28;20048;-67
2021/03/26 09:52:37;;;;;;;21.98;12.70;;;;;;;16.23;38.30;99267.38;5028463;28;20373;-68
2021/03/26 09:55:20;;;;;;;27.83;13.32;;;;;;;16.12;38.42;99254.78;5034167;28;20025;-67
2021/03/26 09:57:55;;;;;;;22.60;12.90;;;;;;;16.07;40.00;99256.66;5031596;28;20013;-70
2021/03/26 10:00:23;;;;;;;;;;;;;;;16.25;38.28;99258.66;5034588;28;20033;-69
2021/03/26 10:03:01;;;;;;;21.90;13.00;;;;;;;16.46;38.17;99259.72;5035369;28;19967;-71
2021/03/26 10:05:32;;;;;;;25.60;14.52;;;;;;;16.63;38.59;99256.63;5030128;28;20033;-69
2021/03/26 10:08:19;;;;;;;30.98;15.30;;;;;;;16.59;38.04;99255.03;5031499;28;20371;-71
2021/03/26 10:10:47;;;;;;;29.40;16.23;;;;;;;16.40;38.32;99250.41;5032890;28;20026;-71
2021/03/26 10:13:19;;;;;;;27.75;16.23;;;;;;;16.78;38.62;99253.50;5025611;28;20088;-71
2021/03/26 10:15:56;;;;;;;29.25;16.65;;;;;;;16.70;38.38;99253.78;5028314;28;20076;-69
2021/03/26 10:18:37;;;;;;;28.50;16.40;;;;;;;16.89;38.75;99249.63;5030601;28;20029;-70
2021/03/26 10:21:02;;;;;;;27.77;16.23;;;;;;;16.92;37.47;99246.13;5030595;28;20029;-71
2021/03/26 10:23:30;;;;;;;28.27;15.95;;;;;;;16.90;37.54;99248.75;5030761;28;20270;-74
2021/03/26 10:25:55;;;;;;;22.83;13.55;;;;;;;17.06;37.85;99243.06;5028390;28;20053;-73
2021/03/26 10:28:32;;;;;;;22.75;14.60;;;;;;;17.14;36.55;99234.06;5036053;28;20033;-72
2021/03/26 10:31:06;;;;;;;26.60;13.95;;;;;;;17.26;36.51;99225.03;5033402;28;20244;-71
2021/03/26 10:33:36;;;;;;;30.40;16.05;;;;;;;17.27;36.76;99227.53;5043117;28;20158;-74
2021/03/26 10:36:17;;;;;;;25.98;15.32;;;;;;;17.22;36.35;99224.31;5036268;28;20072;-72
2021/03/26 10:38:49;;;;;;;30.58;16.67;;;;;;;17.05;36.74;99231.84;5031753;28;20033;-73
2021/03/26 10:41:21;;;;;;;28.48;16.05;;;;;;;16.96;36.94;99228.72;5031998;28;20083;-73
2021/03/26 10:43:59;;;;;;;27.25;16.05;;;;;;;17.27;37.13;99217.19;5033923;28;20049;-73
2021/03/26 10:46:33;;;;;;;26.83;15.80;;;;;;;17.41;35.82;99219.28;5058974;28;20421;-71
2021/03/26 10:49:10;;;;;;;26.08;16.25;;;;;;;17.29;36.00;99212.81;5035960;28;20037;-71
2021/03/26 10:52:05;;;;;;;28.67;15.63;;;;;;;17.46;36.70;99217.34;5038127;28;20030;-71
2021/03/26 10:54:45;;;;;;;31.23;17.80;;;;;;;17.73;35.79;99213.75;5040216;28;20030;-75
2021/03/26 10:57:18;;;;;;;22.33;13.32;;;;;;;17.57;36.30;99206.56;5034033;28;20382;-73
2021/03/26 10:59:59;;;;;;;22.67;15.18;;;;;;;17.76;35.66;99202.41;5037730;28;20038;-73
2021/03/26 11:02:46;;;;;;;22.92;14.90;;;;;;;17.77;35.09;99202.38;5035144;28;20025;-73
2021/03/26 11:05:38;;;;;;;27.90;14.50;;;;;;;17.85;34.52;99198.63;5035389;28;20029;-73
2021/03/26 11:08:03;;;;;;;27.45;15.43;;;;;;;17.78;35.64;99192.81;4982917;28;20026;-73
2021/03/26 11:11:07;;;;;;;25.33;15.43;;;;;;;17.92;36.71;99193.13;4990945;28;20348;-73
2021/03/26 11:13:38;;;;;;;26.67;15.77;;;;;;;17.91;34.79;99190.59;4965163;28;20086;-73
2021/03/26 11:16:13;;;;;;;29.23;15.05;;;;;;;18.00;35.30;99180.69;4997685;28;20120;-72
2021/03/26 11:18:58;;;;;;;;;;;;;;;18.22;34.42;99176.31;4975415;28;20042;-71
2021/03/26 11:21:34;;;;;;;25.40;13.95;;;;;;;18.32;34.43;99174.19;4981287;28;19935;-70
2021/03/26 11:24:05;;;;;;;24.30;13.98;;;;;;;18.52;33.32;99176.81;5002803;28;20340;-67
2021/03/26 11:26:45;;;;;;;22.45;13.60;;;;;;;18.59;34.30;99173.03;4980119;28;20110;-69
2021/03/26 11:29:24;;;;;;;25.38;14.02;;;;;;;18.52;33.49;99173.34;4979764;28;20034;-66
2021/03/26 11:31:59;;;;;;;25.08;15.32;;;;;;;18.31;32.80;99169.91;4979693;28;20042;-68
2021/03/26 11:35:01;;;;;;;24.00;13.27;;;;;;;18.46;33.34;99156.25;4985360;28;20088;-69
2021/03/26 11:37:38;;;;;;;26.42;14.95;;;;;;;18.53;33.29;99159.50;4985598;28;20092;-67
2021/03/26 11:40:27;;;;;;;20.05;13.73;;;;;;;18.49;34.52;99160.50;4983415;28;20031;-66
2021/03/26 11:42:55;;;;;;;21.58;14.13;;;;;;;18.61;32.59;99153.06;4979114;28;20094;-68
2021/03/26 11:45:34;;;;;;;23.40;14.68;;;;;;;18.61;31.58;99142.66;5018600;28;20038;-71
2021/03/26 11:48:03;;;;;;;22.48;13.80;;;;;;;18.59;33.25;99149.66;5034168;28;20034;-67
2021/03/26 11:50:37;;;;;;;22.42;13.60;;;;;;;18.73;34.04;99138.69;5038134;28;20075;-68
2021/03/26 11:53:35;;;;;;;24.27;13.70;;;;;;;18.80;32.18;99134.91;5036987;28;20022;-68
2021/03/26 11:56:23;;;;;;;22.25;13.43;;;;;;;18.72;32.37;99142.19;4973664;28;20030;-68
2021/03/26 11:59:10;;;;;;;22.98;12.38;;;;;;;18.80;32.19;99132.28;4977090;28;20053;-67
2021/03/26 12:01:48;;;;;;;22.45;12.68;;;;;;;18.84;30.93;99127.84;4976384;28;20129;-67
2021/03/26 12:04:18;;;;;;;19.02;11.65;;;;;;;18.82;31.50;99125.28;4976060;28;20442;-70
2021/03/26 12:06:56;;;;;;;22.15;12.18;;;;;;;18.90;31.06;99119.75;4972884;28;20038;-69
2021/03/26 12:09:48;;;;;;;19.10;11.48;;;;;;;18.79;31.06;99114.19;4960671;28;20170;-69
2021/03/26 12:12:31;;;;;;;18.23;10.23;;;;;;;18.80;31.46;99116.72;4900053;29;20048;-69
2021/03/26 12:15:05;;;;;;;16.75;9.50;;;;;;;18.92;31.26;99111.00;4899315;29;20268;-69
2021/03/26 12:17:41;;;;;;;15.73;8.75;;;;;;;19.04;30.96;99110.44;4900034;29;20044;-69
2021/03/26 12:20:23;;;;;;;15.30;8.98;;;;;;;19.04;29.74;99097.44;4898362;29;20096;-69
2021/03/26 12:22:54;;;;;;;18.40;8.77;;;;;;;18.99;32.65;99101.16;4899888;29;20064;-69
2021/03/26 12:25:29;;;;;;;14.35;9.57;;;;;;;19.27;30.57;99093.75;4900128;29;20037;-69
2021/03/26 12:27:57;;;;;;;16.30;8.50;;;;;;;19.24;29.79;99093.06;4899407;29;20036;-69